Terminal Aerodrome Forecast
Issued by NWS

Home | Current Version | Previous Version | Text Only | Print | Product List | Glossary On
Versions: 1 2 3 4 5 6 7 8 9 10 11 12 13 14 15
585
FTPA31 PHFO 251120
TAFHJR
TAF
PHJR 251120Z 2512/2612 VRB05KT P6SM VCSH FEW030 SCT050
     FM252000 13009G15KT P6SM SCT035 BKN050
     FM260300 VRB06KT P6SM VCSH FEW035 BKN050=

USA.gov is the U.S. government's official web portal to all federal, state and local government web resources and services.